Time;durP1;ratioP1;P1;durP2;ratioP2;P2;SDS_P1;SDS_P2;PMS_P1;PMS_P2;Temp;Humidity;BMP_temperature;BMP_pressure;BME280_temperature;BME280_humidity;BME280_pressure;Samples;Min_cycle;Max_cycle;Signal;HPM_P1;HPM_P2
2021/10/10 00:00:30;;;;;;;41.33;24.10;;;;;;;7.65;84.22;102837.59;5055653;28;20539;-63
2021/10/10 00:02:55;;;;;;;39.20;23.55;;;;;;;7.67;85.08;102836.53;5056315;28;20037;-63
2021/10/10 00:05:20;;;;;;;44.63;23.83;;;;;;;7.55;84.49;102834.91;5055541;28;20061;-65
2021/10/10 00:07:46;;;;;;;44.95;25.27;;;;;;;7.43;86.02;102841.78;5054601;28;20533;-62
2021/10/10 00:10:13;;;;;;;50.25;26.20;;;;;;;7.47;85.50;102830.31;5055447;28;20104;-63
2021/10/10 00:12:40;;;;;;;44.08;26.27;;;;;;;7.56;85.16;102826.22;5055514;28;20483;-66
2021/10/10 00:15:08;;;;;;;42.08;24.38;;;;;;;7.50;84.23;102820.75;5055474;28;20021;-63
2021/10/10 00:17:33;;;;;;;51.45;26.35;;;;;;;7.39;85.00;102834.41;5055482;28;20025;-63
2021/10/10 00:19:58;;;;;;;46.72;26.02;;;;;;;7.42;85.67;102823.88;5055811;28;20024;-64
2021/10/10 00:22:24;;;;;;;54.10;27.70;;;;;;;7.42;85.24;102824.72;5055256;28;20044;-64
2021/10/10 00:24:49;;;;;;;48.38;25.77;;;;;;;7.43;84.95;102818.66;5055211;28;20025;-64
2021/10/10 00:27:15;;;;;;;46.63;26.15;;;;;;;7.49;84.56;102827.66;5055172;28;20063;-63
2021/10/10 00:29:40;;;;;;;46.88;26.08;;;;;;;7.50;84.69;102831.03;5055249;28;20017;-63
2021/10/10 00:35:27;;;;;;;46.25;25.30;;;;;;;7.38;85.06;102833.59;5055171;28;20075;-63
2021/10/10 00:37:52;;;;;;;45.30;25.77;;;;;;;7.37;85.02;102831.16;5055657;28;20020;-63
2021/10/10 00:40:18;;;;;;;47.85;25.80;;;;;;;7.35;84.60;102833.84;5055303;28;20025;-63
2021/10/10 00:42:43;;;;;;;45.17;24.63;;;;;;;7.38;85.03;102830.22;5054924;28;20028;-64
2021/10/10 00:45:09;;;;;;;44.20;23.55;;;;;;;7.36;85.22;102826.94;5054926;28;20032;-62
2021/10/10 00:47:36;;;;;;;37.83;22.10;;;;;;;7.44;85.04;102819.44;5054849;28;20475;-63
2021/10/10 00:50:01;;;;;;;40.55;21.17;;;;;;;7.41;85.04;102825.66;5054894;28;20025;-63
2021/10/10 00:52:27;;;;;;;36.35;20.67;;;;;;;7.37;85.54;102808.81;5055274;28;20021;-64
2021/10/10 00:54:54;;;;;;;35.97;21.15;;;;;;;7.29;85.47;102823.19;5054995;28;20403;-63
2021/10/10 00:57:23;;;;;;;34.05;20.45;;;;;;;7.24;84.56;102826.09;5054639;28;20082;-62
2021/10/10 00:59:51;;;;;;;37.83;19.92;;;;;;;7.19;85.49;102821.31;5055035;28;20078;-63
2021/10/10 01:02:16;;;;;;;37.15;19.98;;;;;;;7.20;85.28;102828.09;5054659;28;20108;-64
2021/10/10 01:04:41;;;;;;;35.15;20.08;;;;;;;7.19;85.98;102818.75;5054533;28;20443;-63
2021/10/10 01:07:07;;;;;;;36.97;20.08;;;;;;;7.18;85.90;102811.94;5054493;28;20158;-63
2021/10/10 01:09:37;;;;;;;33.40;20.30;;;;;;;7.19;85.66;102808.47;5054553;28;20066;-64
2021/10/10 01:12:04;;;;;;;33.08;20.52;;;;;;;7.18;85.27;102814.50;5054452;28;20029;-63
2021/10/10 01:14:29;;;;;;;38.83;21.27;;;;;;;7.05;84.87;102806.09;5054561;28;20039;-63
2021/10/10 01:16:55;;;;;;;35.80;21.33;;;;;;;7.12;85.00;102804.69;5054562;28;20021;-63
2021/10/10 01:19:20;;;;;;;39.10;21.45;;;;;;;7.04;84.71;102807.00;5053221;28;20078;-63
2021/10/10 01:21:46;;;;;;;48.53;22.92;;;;;;;7.03;85.23;102812.28;5053029;28;20052;-63
2021/10/10 01:24:11;;;;;;;38.97;22.17;;;;;;;6.96;84.81;102804.19;5054162;28;20033;-63
2021/10/10 01:26:37;;;;;;;33.55;20.52;;;;;;;6.99;85.39;102806.53;5052782;28;20039;-63
2021/10/10 01:29:02;;;;;;;34.80;21.08;;;;;;;7.02;84.88;102808.91;5054047;28;20051;-62
2021/10/10 01:31:27;;;;;;;36.15;21.02;;;;;;;6.99;84.71;102804.81;5052698;28;20107;-64
2021/10/10 01:33:53;;;;;;;34.15;20.33;;;;;;;6.93;84.72;102794.97;5054433;28;20059;-62
2021/10/10 01:36:20;;;;;;;35.97;20.08;;;;;;;6.92;85.00;102788.19;5053694;28;20048;-64
2021/10/10 01:38:45;;;;;;;32.53;20.30;;;;;;;6.95;84.97;102797.41;5053844;28;20108;-63
2021/10/10 01:41:10;;;;;;;34.17;20.55;;;;;;;6.94;84.65;102793.22;5053762;28;20117;-63
2021/10/10 01:43:37;;;;;;;32.70;20.83;;;;;;;6.92;85.22;102793.31;5054062;28;20033;-63
2021/10/10 01:46:03;;;;;;;33.40;20.38;;;;;;;6.92;84.70;102795.88;5052506;28;20032;-63
2021/10/10 01:48:29;;;;;;;35.10;21.23;;;;;;;6.88;84.98;102786.78;5053945;28;20024;-63
2021/10/10 01:50:54;;;;;;;34.63;21.25;;;;;;;6.93;85.01;102789.00;5053658;28;20043;-63
2021/10/10 01:53:20;;;;;;;37.47;21.00;;;;;;;6.85;84.62;102792.16;5053665;28;20031;-63
2021/10/10 01:55:46;;;;;;;37.03;20.77;;;;;;;6.74;85.06;102784.41;5053479;28;20422;-62
2021/10/10 01:58:14;;;;;;;36.58;20.70;;;;;;;6.64;85.61;102794.50;5053476;28;20020;-63
2021/10/10 02:00:40;;;;;;;35.22;20.27;;;;;;;6.58;86.13;102791.59;5052142;28;20032;-63
2021/10/10 02:03:05;;;;;;;34.05;21.30;;;;;;;6.65;85.29;102791.03;5053429;28;20017;-63
2021/10/10 02:05:30;;;;;;;38.45;21.55;;;;;;;6.51;85.23;102778.38;5053732;28;20017;-63
2021/10/10 02:07:56;;;;;;;35.88;21.17;;;;;;;6.59;85.42;102790.63;5053377;28;20020;-63
2021/10/10 02:10:22;;;;;;;34.83;20.40;;;;;;;6.58;85.16;102783.88;5053375;28;20106;-63
2021/10/10 02:12:47;;;;;;;36.25;21.30;;;;;;;6.54;85.26;102785.84;5053898;28;20059;-63
2021/10/10 02:15:12;;;;;;;31.88;17.90;;;;;;;6.47;84.89;102792.34;5053606;28;20507;-64
2021/10/10 02:17:38;;;;;;;27.83;16.77;;;;;;;6.47;84.80;102785.50;5053334;28;20091;-63
2021/10/10 02:20:05;;;;;;;29.50;17.38;;;;;;;6.40;85.29;102779.13;5053172;28;20380;-64
2021/10/10 02:22:30;;;;;;;30.17;16.52;;;;;;;6.43;85.26;102793.50;5053500;28;20052;-66
2021/10/10 02:24:56;;;;;;;29.48;16.38;;;;;;;6.26;84.42;102784.44;5053264;28;20060;-63
2021/10/10 02:27:21;;;;;;;27.35;16.70;;;;;;;6.29;85.81;102782.47;5053242;28;20025;-64
2021/10/10 02:29:46;;;;;;;28.27;16.40;;;;;;;6.29;84.51;102779.91;5052968;28;20485;-63
2021/10/10 02:32:11;;;;;;;29.05;15.93;;;;;;;6.37;84.61;102778.56;5053105;28;20029;-63
2021/10/10 02:34:37;;;;;;;25.77;15.90;;;;;;;6.22;85.26;102778.72;5053412;28;20025;-62
2021/10/10 02:37:05;;;;;;;29.65;17.05;;;;;;;6.22;86.08;102783.84;5052996;28;20484;-63
2021/10/10 02:39:30;;;;;;;35.05;17.60;;;;;;;6.27;85.56;102774.09;5051757;28;20033;-64
2021/10/10 02:41:56;;;;;;;30.08;16.95;;;;;;;6.17;84.64;102775.66;5053080;28;20029;-64
2021/10/10 02:44:21;;;;;;;28.58;16.52;;;;;;;6.10;85.73;102782.16;5053008;28;20371;-63
2021/10/10 02:46:46;;;;;;;35.42;17.15;;;;;;;6.07;85.55;102784.91;5053030;28;20079;-63
2021/10/10 02:49:12;;;;;;;31.73;18.08;;;;;;;6.12;85.13;102775.16;5053026;28;20028;-64
2021/10/10 02:51:37;;;;;;;28.35;17.35;;;;;;;6.19;85.73;102778.94;5053023;28;20104;-64
2021/10/10 02:54:02;;;;;;;31.75;18.33;;;;;;;6.09;84.79;102773.63;5053262;28;20021;-63
2021/10/10 02:56:28;;;;;;;33.92;18.17;;;;;;;5.98;85.39;102765.84;5052830;28;20032;-63
2021/10/10 02:58:53;;;;;;;32.13;17.88;;;;;;;5.91;85.59;102774.88;5053019;28;20075;-62
2021/10/10 03:01:18;;;;;;;32.72;18.90;;;;;;;5.98;86.16;102775.31;5051799;28;20053;-63
2021/10/10 03:03:44;;;;;;;34.85;18.98;;;;;;;5.96;85.28;102769.47;5052816;28;20047;-63
2021/10/10 03:06:09;;;;;;;33.45;18.67;;;;;;;5.92;86.36;102768.00;5052801;28;20082;-63
2021/10/10 03:08:36;;;;;;;32.25;19.00;;;;;;;5.85;86.55;102765.06;5052754;28;20021;-62
2021/10/10 03:11:02;;;;;;;32.95;19.13;;;;;;;5.92;86.97;102768.00;5051512;28;20104;-64
2021/10/10 03:13:27;;;;;;;33.47;18.17;;;;;;;5.95;86.18;102767.81;5052752;28;20029;-63
2021/10/10 03:15:52;;;;;;;33.70;19.23;;;;;;;5.77;86.55;102765.59;5052689;28;20044;-63
2021/10/10 03:18:18;;;;;;;33.25;17.95;;;;;;;5.80;86.74;102762.81;5051492;28;20021;-63
2021/10/10 03:20:43;;;;;;;38.85;18.50;;;;;;;5.80;87.01;102762.81;5052700;28;20024;-64
2021/10/10 03:23:08;;;;;;;29.17;17.45;;;;;;;5.89;86.37;102761.34;5052658;28;20464;-63
2021/10/10 03:25:33;;;;;;;36.83;18.42;;;;;;;5.91;85.83;102759.50;5052606;28;20074;-64
2021/10/10 03:27:59;;;;;;;31.13;18.20;;;;;;;5.94;86.45;102755.94;5051392;28;20036;-63
2021/10/10 03:30:24;;;;;;;33.10;18.63;;;;;;;6.06;86.21;102753.31;5052749;28;20033;-63
2021/10/10 03:32:49;;;;;;;31.13;18.33;;;;;;;6.10;86.19;102747.03;5052634;28;20471;-63
2021/10/10 03:35:15;;;;;;;34.70;18.60;;;;;;;6.18;86.10;102749.03;5052416;28;20029;-63
2021/10/10 03:37:40;;;;;;;30.88;18.58;;;;;;;6.23;85.15;102751.28;5053126;28;20372;-63
2021/10/10 03:40:08;;;;;;;33.08;19.55;;;;;;;6.07;86.02;102744.69;5052379;28;20021;-62
2021/10/10 03:42:34;;;;;;;33.33;18.63;;;;;;;6.03;86.31;102752.72;5053939;28;20025;-63
2021/10/10 03:44:59;;;;;;;36.55;19.20;;;;;;;6.20;86.71;102747.19;5056112;28;20490;-62
2021/10/10 03:47:25;;;;;;;41.00;20.95;;;;;;;6.29;86.89;102746.53;5056065;28;20024;-63
2021/10/10 03:49:50;;;;;;;35.95;19.90;;;;;;;6.38;86.53;102751.94;5056014;28;20417;-63
2021/10/10 03:52:15;;;;;;;36.13;19.75;;;;;;;6.33;85.54;102750.53;5055910;28;20159;-63
2021/10/10 03:57:09;;;;;;;34.60;18.35;;;;;;;6.41;85.62;102744.00;5056371;28;20027;-62
2021/10/10 03:59:34;;;;;;;150.70;24.25;;;;;;;6.42;87.33;102750.78;5055825;28;20025;-63
2021/10/10 04:02:05;;;;;;;171.73;25.33;;;;;;;6.36;88.59;102749.50;5054383;28;20491;-63
2021/10/10 04:04:33;;;;;;;130.65;26.55;;;;;;;6.36;89.08;102752.06;5055621;28;20025;-63
2021/10/10 04:06:59;;;;;;;146.43;27.55;;;;;;;6.34;89.08;102748.78;5055935;28;20486;-63
2021/10/10 04:09:24;;;;;;;110.07;23.77;;;;;;;6.29;89.20;102751.66;5055597;28;20021;-62
2021/10/10 04:11:49;;;;;;;49.10;22.20;;;;;;;6.21;88.96;102750.56;5055515;28;20116;-62
2021/10/10 04:14:15;;;;;;;38.60;20.95;;;;;;;6.17;87.65;102742.28;5055433;28;20383;-62
2021/10/10 04:16:40;;;;;;;39.90;20.52;;;;;;;6.20;87.76;102746.38;5055959;28;20020;-62
2021/10/10 04:19:05;;;;;;;45.35;21.42;;;;;;;6.18;87.82;102750.78;5055351;28;20013;-62
2021/10/10 04:21:30;;;;;;;33.72;19.75;;;;;;;6.19;87.12;102748.13;5055356;28;20041;-62
2021/10/10 04:23:56;;;;;;;39.13;21.60;;;;;;;6.16;87.14;102755.22;5054029;28;20506;-63
2021/10/10 04:26:21;;;;;;;35.85;20.45;;;;;;;6.10;87.36;102749.59;5055321;28;20025;-63
2021/10/10 04:28:46;;;;;;;37.60;20.90;;;;;;;6.12;87.16;102752.03;5055146;28;20060;-63
2021/10/10 04:31:11;;;;;;;39.83;20.15;;;;;;;6.14;86.36;102757.91;5055158;28;20035;-63
2021/10/10 04:33:37;;;;;;;40.50;20.45;;;;;;;5.98;87.50;102760.72;5053889;28;20053;-62
2021/10/10 04:36:02;;;;;;;39.55;20.88;;;;;;;5.97;88.10;102753.97;5054900;28;20095;-62
2021/10/10 04:38:27;;;;;;;41.65;21.38;;;;;;;6.04;87.56;102757.75;5055188;28;20345;-62
2021/10/10 04:40:54;;;;;;;42.28;21.58;;;;;;;5.94;86.82;102761.88;5054978;28;20416;-62
2021/10/10 04:43:19;;;;;;;41.60;21.38;;;;;;;5.99;86.79;102751.31;5054944;28;20033;-63
2021/10/10 04:45:44;;;;;;;39.60;21.10;;;;;;;5.99;87.17;102757.25;5054942;28;20039;-63
2021/10/10 04:48:10;;;;;;;39.88;20.63;;;;;;;5.77;86.54;102760.44;5055172;28;20053;-63
2021/10/10 04:50:35;;;;;;;36.95;19.48;;;;;;;5.73;86.68;102750.53;5054790;28;20021;-62
2021/10/10 04:53:00;;;;;;;39.08;20.67;;;;;;;5.85;87.25;102759.94;5053404;28;20107;-63
2021/10/10 04:55:25;;;;;;;40.53;20.55;;;;;;;5.91;86.36;102750.97;5054673;28;20542;-62
2021/10/10 04:57:51;;;;;;;37.17;19.88;;;;;;;5.91;86.21;102748.41;5055203;28;20033;-63
2021/10/10 05:00:16;;;;;;;35.05;19.85;;;;;;;5.93;86.62;102741.41;5054449;28;20069;-63
2021/10/10 05:02:41;;;;;;;36.20;19.58;;;;;;;5.96;86.29;102747.19;5054608;28;20027;-62
2021/10/10 05:05:07;;;;;;;35.08;18.60;;;;;;;5.96;85.70;102739.50;5054532;28;20103;-63
2021/10/10 05:07:32;;;;;;;33.97;18.52;;;;;;;5.85;86.16;102742.78;5054475;28;20029;-62
2021/10/10 05:09:57;;;;;;;34.75;18.73;;;;;;;5.78;87.05;102748.44;5054414;28;20057;-64
2021/10/10 05:12:23;;;;;;;32.63;18.67;;;;;;;5.76;86.48;102750.31;5054304;28;20379;-64
2021/10/10 05:14:48;;;;;;;32.30;18.50;;;;;;;5.87;87.25;102750.38;5054895;28;20037;-62
2021/10/10 05:17:13;;;;;;;35.45;18.88;;;;;;;5.95;86.68;102745.53;5054342;28;20032;-64
2021/10/10 05:19:39;;;;;;;35.70;20.02;;;;;;;5.98;86.33;102741.94;5054146;28;20456;-63
2021/10/10 05:22:04;;;;;;;36.67;20.08;;;;;;;6.01;86.72;102749.41;5054224;28;20039;-63
2021/10/10 05:24:30;;;;;;;34.00;19.45;;;;;;;5.98;86.23;102741.94;5054782;28;20024;-63
2021/10/10 05:26:55;;;;;;;36.85;19.83;;;;;;;6.01;85.84;102736.59;5054152;28;20056;-62
2021/10/10 05:29:21;;;;;;;36.38;20.02;;;;;;;5.98;86.07;102732.50;5054085;28;20013;-62
2021/10/10 05:31:46;;;;;;;34.78;19.35;;;;;;;5.96;85.79;102741.25;5054320;28;20025;-62
2021/10/10 05:34:11;;;;;;;39.35;19.90;;;;;;;5.81;85.98;102748.22;5054308;28;20028;-65
2021/10/10 05:36:36;;;;;;;39.28;19.27;;;;;;;5.77;86.98;102749.38;5053911;28;20052;-62
2021/10/10 05:39:03;;;;;;;44.55;20.63;;;;;;;5.78;87.07;102753.56;5054334;28;20025;-63
2021/10/10 05:41:28;;;;;;;39.85;21.55;;;;;;;5.86;86.70;102753.84;5053796;28;20029;-63
2021/10/10 05:43:53;;;;;;;41.65;20.98;;;;;;;5.90;86.33;102752.72;5053770;28;20498;-63
2021/10/10 05:46:19;;;;;;;42.30;20.80;;;;;;;6.00;86.33;102729.81;5053725;28;20020;-63
2021/10/10 05:48:44;;;;;;;36.25;19.23;;;;;;;6.04;86.47;102710.69;5053906;28;20029;-63
2021/10/10 05:51:09;;;;;;;33.22;18.15;;;;;;;6.18;85.52;102712.28;5053703;28;20483;-63
2021/10/10 05:53:37;;;;;;;33.33;17.65;;;;;;;6.03;86.07;102715.03;5053627;28;20028;-64
2021/10/10 05:56:03;;;;;;;31.90;18.15;;;;;;;6.23;86.72;102712.78;5053573;28;20021;-64
2021/10/10 05:58:31;;;;;;;32.72;18.15;;;;;;;6.28;85.84;102710.69;5053382;28;20025;-63
2021/10/10 06:00:57;;;;;;;27.92;16.88;;;;;;;6.19;84.62;102699.34;5053475;28;20028;-63
2021/10/10 06:03:23;;;;;;;28.67;17.10;;;;;;;6.06;84.74;102696.81;5053460;28;20464;-64
2021/10/10 06:05:48;;;;;;;27.40;16.45;;;;;;;6.17;85.17;102703.78;5052968;28;20025;-63
2021/10/10 06:08:13;;;;;;;30.08;17.05;;;;;;;6.21;85.51;102706.94;5053293;28;20033;-62
2021/10/10 06:10:39;;;;;;;33.75;17.58;;;;;;;6.31;84.99;102711.28;5053290;28;20027;-63
2021/10/10 06:13:06;;;;;;;27.25;16.30;;;;;;;6.42;84.99;102715.66;5053919;28;20029;-63
2021/10/10 06:15:32;;;;;;;32.63;17.58;;;;;;;6.33;84.96;102716.31;5053339;28;20115;-63
2021/10/10 06:17:57;;;;;;;32.28;18.25;;;;;;;6.29;85.32;102710.56;5053425;28;20064;-64
2021/10/10 06:20:23;;;;;;;31.98;17.17;;;;;;;6.19;84.82;102695.97;5055193;28;20472;-66
2021/10/10 06:22:48;;;;;;;33.30;17.75;;;;;;;6.41;84.42;102716.56;5054947;28;20095;-65
2021/10/10 06:25:15;;;;;;;33.40;17.70;;;;;;;6.46;84.37;102713.66;5055381;28;20025;-67
2021/10/10 06:27:40;;;;;;;32.78;17.77;;;;;;;6.51;84.40;102714.16;5054037;28;20025;-66
2021/10/10 06:30:06;;;;;;;33.08;17.85;;;;;;;6.67;84.12;102729.25;5054589;28;20047;-62
2021/10/10 06:32:31;;;;;;;34.20;17.95;;;;;;;6.68;83.49;102739.44;5053166;28;20032;-61
2021/10/10 06:34:56;;;;;;;31.35;17.83;;;;;;;6.83;82.78;102745.19;5053202;28;20132;-62
2021/10/10 06:37:22;;;;;;;34.65;18.80;;;;;;;6.80;82.83;102742.03;5053066;28;20049;-63
2021/10/10 06:39:47;;;;;;;33.42;18.38;;;;;;;6.75;83.03;102738.03;5052203;28;20029;-63
2021/10/10 06:42:12;;;;;;;35.42;19.35;;;;;;;6.77;82.81;102732.78;5053170;28;20028;-63
2021/10/10 06:44:38;;;;;;;31.95;18.05;;;;;;;6.88;82.76;102749.97;5053110;28;20025;-63
2021/10/10 06:47:03;;;;;;;35.92;18.70;;;;;;;6.98;82.25;102731.16;5053030;28;20036;-63
2021/10/10 06:49:29;;;;;;;38.00;18.45;;;;;;;7.17;82.69;102728.03;5052963;28;20029;-64
2021/10/10 06:51:54;;;;;;;36.05;19.52;;;;;;;7.25;81.52;102724.88;5052856;28;20032;-63
2021/10/10 06:54:19;;;;;;;36.17;20.67;;;;;;;7.51;81.41;102729.75;5052909;28;20021;-63
2021/10/10 06:56:45;;;;;;;36.65;22.58;;;;;;;7.56;80.74;102728.47;5052884;28;20032;-63
2021/10/10 06:59:10;;;;;;;36.95;20.92;;;;;;;7.53;81.19;102727.88;5053530;28;20025;-63
2021/10/10 07:01:35;;;;;;;38.35;21.23;;;;;;;7.45;80.91;102731.03;5053279;28;20028;-63
2021/10/10 07:04:01;;;;;;;34.08;20.95;;;;;;;7.54;82.04;102732.09;5052896;28;20029;-64
2021/10/10 07:06:26;;;;;;;36.28;20.77;;;;;;;7.57;81.57;102724.16;5053042;28;20078;-63
2021/10/10 07:08:52;;;;;;;35.75;20.23;;;;;;;7.88;81.09;102723.38;5053436;28;20021;-62
2021/10/10 07:11:19;;;;;;;37.22;20.45;;;;;;;7.89;80.92;102717.28;5053552;28;20432;-63
2021/10/10 07:13:44;;;;;;;37.03;19.88;;;;;;;8.10;80.13;102735.34;5053815;28;20119;-62
2021/10/10 07:16:09;;;;;;;34.72;20.33;;;;;;;8.27;80.13;102728.84;5052843;28;20056;-61
2021/10/10 07:18:54;;;;;;;38.35;20.17;;;;;;;8.29;79.50;102746.78;5055867;28;20052;-64
2021/10/10 07:26:36;;;;;;;29.25;18.98;;;;;;;9.09;77.53;102741.06;5056801;28;20112;-63
2021/10/10 07:29:03;;;;;;;33.78;18.35;;;;;;;9.22;77.11;102743.41;5056497;28;20052;-62
2021/10/10 07:31:28;;;;;;;31.90;18.73;;;;;;;9.01;78.05;102757.16;5056390;28;20028;-63
2021/10/10 07:33:53;;;;;;;32.58;19.55;;;;;;;9.00;78.38;102759.84;5054975;28;20033;-63
2021/10/10 07:36:19;;;;;;;30.40;19.25;;;;;;;9.24;77.53;102755.22;5056703;28;20476;-63
2021/10/10 07:38:44;;;;;;;32.67;19.90;;;;;;;9.35;77.31;102758.66;5056100;28;20062;-64
2021/10/10 07:41:09;;;;;;;28.52;18.80;;;;;;;9.36;78.34;102762.88;5056245;28;20025;-63
2021/10/10 07:43:35;;;;;;;35.65;19.00;;;;;;;9.79;76.79;102752.25;5056219;28;20078;-63
2021/10/10 07:46:07;;;;;;;29.95;19.45;;;;;;;10.33;75.03;102765.66;5056153;28;20412;-63
2021/10/10 07:48:36;;;;;;;30.15;19.20;;;;;;;11.07;72.18;102754.63;5056349;28;20100;-63
2021/10/10 07:51:03;;;;;;;27.40;18.52;;;;;;;11.86;70.06;102764.47;5055925;28;20031;-64
2021/10/10 07:53:29;;;;;;;32.22;19.77;;;;;;;12.00;68.87;102764.91;5055912;28;20035;-64
2021/10/10 07:55:54;;;;;;;33.05;19.27;;;;;;;13.01;66.16;102768.75;5055787;28;20029;-64
2021/10/10 07:58:19;;;;;;;29.50;18.95;;;;;;;13.37;64.90;102755.59;5054445;28;20060;-65
2021/10/10 08:00:45;;;;;;;29.95;19.27;;;;;;;13.75;65.33;102763.81;5055704;28;20040;-64
2021/10/10 08:03:10;;;;;;;27.50;18.95;;;;;;;13.38;66.26;102769.41;5055737;28;20070;-64
2021/10/10 08:05:42;;;;;;;35.80;20.30;;;;;;;13.27;67.39;102773.09;5055683;28;20021;-64
2021/10/10 08:08:08;;;;;;;35.55;20.40;;;;;;;13.26;68.46;102774.91;5055709;28;20417;-63
2021/10/10 08:10:33;;;;;;;29.98;20.20;;;;;;;12.78;69.50;102772.81;5055857;28;20044;-64
2021/10/10 08:12:59;;;;;;;34.22;21.30;;;;;;;12.16;71.56;102771.06;5055633;28;20020;-63
2021/10/10 08:15:24;;;;;;;33.88;21.58;;;;;;;11.77;73.49;102772.25;5055600;28;20029;-63
2021/10/10 08:17:50;;;;;;;32.88;20.90;;;;;;;11.62;73.71;102772.75;5054152;28;20052;-64
2021/10/10 08:20:15;;;;;;;33.83;21.05;;;;;;;11.56;74.91;102775.09;5055386;28;20368;-63
2021/10/10 08:22:41;;;;;;;35.90;22.27;;;;;;;11.52;75.61;102769.41;5055473;28;20048;-63
2021/10/10 08:25:13;;;;;;;35.75;21.42;;;;;;;11.73;74.22;102771.72;5055813;28;20025;-66
2021/10/10 08:27:41;;;;;;;33.95;21.90;;;;;;;12.32;73.04;102777.34;5056366;28;20032;-66
2021/10/10 08:30:10;;;;;;;34.95;22.00;;;;;;;12.85;71.64;102761.66;5056973;28;20021;-65
2021/10/10 08:32:36;;;;;;;34.28;21.70;;;;;;;14.05;66.63;102754.63;5056844;28;20032;-68
2021/10/10 08:35:05;;;;;;;33.45;21.15;;;;;;;14.63;64.72;102776.25;5070339;23;20488;-39
2021/10/10 08:37:31;;;;;;;30.02;20.40;;;;;;;15.22;63.02;102776.75;5055341;28;20079;-41
2021/10/10 08:39:57;;;;;;;30.98;20.38;;;;;;;16.03;61.70;102769.47;5055364;28;20471;-39
2021/10/10 08:42:29;;;;;;;32.85;20.90;;;;;;;15.81;63.09;102765.06;5053788;28;20037;-39
2021/10/10 08:45:04;;;;;;;31.30;20.50;;;;;;;15.88;62.50;102776.41;5053775;28;20040;-40
2021/10/10 08:47:31;;;;;;;34.65;21.30;;;;;;;17.36;57.82;102776.63;5055288;28;20025;-40
2021/10/10 08:49:57;;;;;;;32.63;20.85;;;;;;;18.10;54.79;102770.34;5055191;28;20025;-40
2021/10/10 08:52:23;;;;;;;34.65;20.75;;;;;;;17.69;56.88;102768.31;5055370;28;20043;-39
2021/10/10 08:54:48;;;;;;;31.23;20.77;;;;;;;17.39;58.19;102767.59;5055094;28;20051;-40
2021/10/10 08:57:14;;;;;;;34.22;22.65;;;;;;;15.58;62.77;102764.00;5055352;28;20117;-40
2021/10/10 08:59:41;;;;;;;39.25;22.73;;;;;;;14.51;67.25;102765.34;5054609;28;20021;-41
2021/10/10 09:02:13;;;;;;;42.60;25.45;;;;;;;14.15;69.08;102770.06;5054998;28;20029;-39
2021/10/10 09:04:39;;;;;;;39.47;25.85;;;;;;;13.57;72.08;102763.94;5054587;28;20032;-39
2021/10/10 09:07:05;;;;;;;42.58;25.65;;;;;;;13.19;73.33;102754.88;5054889;28;20020;-38
2021/10/10 09:09:33;;;;;;;40.90;26.50;;;;;;;13.04;75.18;102770.22;5054556;28;20021;-39
2021/10/10 09:12:16;;;;;;;41.58;25.92;;;;;;;13.29;73.79;102766.78;5054515;28;20021;-39
2021/10/10 09:14:50;;;;;;;47.17;26.65;;;;;;;13.86;71.74;102763.53;5054258;28;20107;-39
2021/10/10 09:17:16;;;;;;;45.25;25.90;;;;;;;17.14;62.17;102766.09;5054831;28;20025;-39
2021/10/10 09:20:08;;;;;;;41.63;25.55;;;;;;;21.04;50.87;102760.38;5054052;28;20021;-40
2021/10/10 09:22:35;;;;;;;38.70;24.70;;;;;;;22.85;44.58;102769.31;5050396;28;20045;-40
2021/10/10 09:25:10;;;;;;;37.88;25.17;;;;;;;24.21;40.68;102759.81;5053999;28;20028;-39
2021/10/10 09:27:35;;;;;;;34.63;24.52;;;;;;;24.70;40.38;102751.63;5052875;28;20021;-39
2021/10/10 09:30:04;;;;;;;41.70;24.13;;;;;;;25.07;39.35;102751.25;5053992;28;20024;-40
2021/10/10 09:32:32;;;;;;;40.70;25.55;;;;;;;25.23;37.61;102750.50;5054200;28;20040;-40
2021/10/10 09:34:57;;;;;;;34.58;24.35;;;;;;;25.38;38.69;102757.94;5053010;28;20060;-40
2021/10/10 09:37:39;;;;;;;34.90;24.88;;;;;;;25.13;38.58;102758.25;5053987;28;20028;-41
2021/10/10 09:42:39;;;;;;;38.88;25.55;;;;;;;25.64;37.53;102767.09;5054464;28;20029;-41
2021/10/10 09:45:29;;;;;;;39.22;26.20;;;;;;;25.50;37.86;102776.38;5054075;28;20352;-40
2021/10/10 09:47:58;;;;;;;49.30;27.50;;;;;;;24.96;40.21;102774.06;5054203;28;20429;-41
2021/10/10 09:50:26;;;;;;;47.28;28.48;;;;;;;25.37;39.22;102764.25;5054062;28;20017;-40
2021/10/10 09:53:09;;;;;;;46.03;28.90;;;;;;;25.53;39.90;102750.25;5053687;28;20379;-40
2021/10/10 09:55:54;;;;;;;51.22;30.02;;;;;;;26.32;38.12;102757.22;5053709;28;20033;-41
2021/10/10 09:58:40;;;;;;;52.10;30.25;;;;;;;26.36;37.38;102755.72;5053499;28;20033;-40
2021/10/10 10:01:15;;;;;;;49.83;29.73;;;;;;;25.78;38.19;102762.25;5054114;28;20067;-41
2021/10/10 10:03:58;;;;;;;54.22;30.73;;;;;;;24.01;42.35;102762.00;5053654;28;20036;-39
2021/10/10 10:06:27;;;;;;;46.70;30.65;;;;;;;24.66;42.06;102756.56;5053807;28;20043;-41
2021/10/10 10:08:54;;;;;;;49.63;31.05;;;;;;;21.33;49.77;102762.44;5053470;28;20023;-40
2021/10/10 10:11:20;;;;;;;48.20;30.25;;;;;;;19.98;53.44;102762.16;5053852;28;20052;-40
2021/10/10 10:13:47;;;;;;;49.28;30.15;;;;;;;19.80;54.82;102765.38;5052354;28;20075;-40
2021/10/10 10:16:14;;;;;;;53.20;31.52;;;;;;;18.97;58.56;102769.94;5053524;28;20032;-41
2021/10/10 10:18:41;;;;;;;50.15;30.45;;;;;;;18.10;61.31;102767.72;5053630;28;20024;-41
2021/10/10 10:21:08;;;;;;;51.58;30.33;;;;;;;17.34;64.46;102774.16;5053661;28;20548;-41
2021/10/10 10:23:35;;;;;;;50.55;31.20;;;;;;;17.52;64.45;102773.78;5052204;28;20031;-41
2021/10/10 10:26:01;;;;;;;53.70;31.30;;;;;;;17.33;63.80;102759.50;5053216;28;20036;-40
2021/10/10 10:28:27;;;;;;;55.17;32.67;;;;;;;17.48;64.71;102769.09;5053193;28;20021;-41
2021/10/10 10:30:53;;;;;;;54.00;30.77;;;;;;;18.80;59.69;102766.81;5053470;28;20032;-40
2021/10/10 10:33:18;;;;;;;53.33;31.35;;;;;;;19.54;57.73;102773.16;5053272;28;20033;-41
2021/10/10 10:35:45;;;;;;;51.58;29.40;;;;;;;20.10;55.11;102769.41;5052937;28;20087;-40
2021/10/10 10:38:10;;;;;;;48.85;29.02;;;;;;;19.22;56.69;102766.78;5053367;28;20192;-40
2021/10/10 10:40:39;;;;;;;44.72;28.40;;;;;;;18.38;59.03;102768.53;5051678;28;20104;-41
2021/10/10 10:43:06;;;;;;;51.03;30.38;;;;;;;18.61;60.15;102765.66;5052262;28;20017;-40
2021/10/10 10:45:37;;;;;;;45.42;27.02;;;;;;;19.24;56.31;102768.22;5053216;28;20029;-41
2021/10/10 10:48:27;;;;;;;45.85;27.42;;;;;;;19.14;56.82;102759.94;5053039;28;20544;-47
2021/10/10 10:51:23;;;;;;;43.78;27.13;;;;;;;18.86;57.15;102768.66;5042827;28;20041;-41
2021/10/10 10:53:49;;;;;;;42.25;25.15;;;;;;;18.59;57.37;102770.31;5055960;28;20509;-40
2021/10/10 10:56:33;;;;;;;41.53;25.60;;;;;;;18.13;57.38;102769.97;5057378;28;20524;-41
2021/10/10 10:58:59;;;;;;;39.13;24.50;;;;;;;18.30;57.71;102767.88;5057231;28;20040;-41
2021/10/10 11:01:26;;;;;;;38.83;25.63;;;;;;;17.86;60.30;102768.91;5057011;28;20036;-40
2021/10/10 11:04:24;;;;;;;45.58;26.42;;;;;;;18.02;58.81;102763.44;5057267;28;20104;-40
2021/10/10 11:06:55;;;;;;;46.42;27.30;;;;;;;18.45;58.38;102761.56;5056848;28;20108;-41
2021/10/10 11:09:24;;;;;;;40.20;25.63;;;;;;;18.61;57.08;102759.63;5056074;28;20028;-40
2021/10/10 11:11:58;;;;;;;42.40;24.42;;;;;;;18.47;57.98;102761.34;5057405;28;20025;-40
2021/10/10 11:14:28;;;;;;;42.20;24.52;;;;;;;18.83;56.88;102763.00;5056800;28;20031;-40
2021/10/10 11:17:04;;;;;;;34.80;22.05;;;;;;;18.70;56.44;102761.06;5056738;28;20033;-40
2021/10/10 11:19:30;;;;;;;39.13;22.90;;;;;;;17.90;58.73;102765.75;5056630;28;20029;-40
2021/10/10 11:21:56;;;;;;;35.28;23.05;;;;;;;17.26;60.89;102757.78;5056384;28;20521;-39
2021/10/10 11:24:24;;;;;;;34.65;23.52;;;;;;;17.36;60.24;102753.09;5056456;28;20154;-40
2021/10/10 11:26:52;;;;;;;38.47;23.77;;;;;;;17.40;59.64;102743.88;5056301;28;20025;-39